sensor_id;sensor_type;location;lat;lon;timestamp;pressure;altitude;pressure_sealevel;temperature;humidity
71638;BME280;59485;43.542;-5.676;2023-03-31T00:02:08;101297.94;;;17.92;100.00
71638;BME280;59485;43.542;-5.676;2023-03-31T00:04:41;101298.16;;;17.91;100.00
71638;BME280;59485;43.542;-5.676;2023-03-31T00:07:14;101297.78;;;17.87;100.00
71638;BME280;59485;43.542;-5.676;2023-03-31T00:09:40;101301.84;;;17.85;100.00
71638;BME280;59485;43.542;-5.676;2023-03-31T00:12:11;101296.13;;;17.80;100.00
71638;BME280;59485;43.542;-5.676;2023-03-31T00:14:38;101309.75;;;17.81;100.00
71638;BME280;59485;43.542;-5.676;2023-03-31T00:17:04;101304.31;;;17.68;100.00
71638;BME280;59485;43.542;-5.676;2023-03-31T00:19:29;101299.88;;;17.54;100.00
71638;BME280;59485;43.542;-5.676;2023-03-31T00:21:57;101305.84;;;17.57;100.00
71638;BME280;59485;43.542;-5.676;2023-03-31T00:24:27;101300.34;;;17.51;100.00
71638;BME280;59485;43.542;-5.676;2023-03-31T00:26:53;101309.03;;;17.61;100.00
71638;BME280;59485;43.542;-5.676;2023-03-31T00:29:18;101314.59;;;17.61;100.00
71638;BME280;59485;43.542;-5.676;2023-03-31T00:31:44;101306.56;;;17.46;100.00
71638;BME280;59485;43.542;-5.676;2023-03-31T00:34:09;101304.81;;;17.52;100.00
71638;BME280;59485;43.542;-5.676;2023-03-31T00:36:35;101295.81;;;17.56;100.00
71638;BME280;59485;43.542;-5.676;2023-03-31T00:39:10;101312.94;;;17.47;100.00
71638;BME280;59485;43.542;-5.676;2023-03-31T00:41:37;101311.03;;;17.47;100.00
71638;BME280;59485;43.542;-5.676;2023-03-31T00:44:16;101303.13;;;17.51;100.00
71638;BME280;59485;43.542;-5.676;2023-03-31T00:47:05;101308.25;;;17.47;100.00
71638;BME280;59485;43.542;-5.676;2023-03-31T00:52:24;101309.41;;;17.33;100.00
71638;BME280;59485;43.542;-5.676;2023-03-31T00:54:55;101317.72;;;17.33;100.00
71638;BME280;59485;43.542;-5.676;2023-03-31T00:57:22;101312.56;;;17.43;100.00
71638;BME280;59485;43.542;-5.676;2023-03-31T00:59:53;101299.34;;;17.39;100.00
71638;BME280;59485;43.542;-5.676;2023-03-31T01:02:22;101319.38;;;17.41;100.00
71638;BME280;59485;43.542;-5.676;2023-03-31T01:04:53;101306.06;;;17.56;100.00
71638;BME280;59485;43.542;-5.676;2023-03-31T01:07:25;101315.13;;;17.38;100.00
71638;BME280;59485;43.542;-5.676;2023-03-31T01:09:57;101317.03;;;17.44;100.00
71638;BME280;59485;43.542;-5.676;2023-03-31T01:12:25;101312.72;;;17.48;100.00
71638;BME280;59485;43.542;-5.676;2023-03-31T01:14:51;101321.31;;;17.40;100.00
71638;BME280;59485;43.542;-5.676;2023-03-31T01:17:19;101322.22;;;17.34;100.00
71638;BME280;59485;43.542;-5.676;2023-03-31T01:27:46;101310.38;;;18.08;100.00
71638;BME280;59485;43.542;-5.676;2023-03-31T01:41:52;101240.78;;;19.19;100.00
71638;BME280;59485;43.542;-5.676;2023-03-31T01:46:54;101276.72;;;19.02;100.00
71638;BME280;59485;43.542;-5.676;2023-03-31T01:55:25;101269.38;;;18.90;100.00
71638;BME280;59485;43.542;-5.676;2023-03-31T01:57:59;101274.91;;;18.78;100.00
71638;BME280;59485;43.542;-5.676;2023-03-31T02:00:29;101269.63;;;18.70;100.00
71638;BME280;59485;43.542;-5.676;2023-03-31T02:03:06;101252.38;;;18.68;100.00
71638;BME280;59485;43.542;-5.676;2023-03-31T02:05:43;101288.41;;;18.74;100.00
71638;BME280;59485;43.542;-5.676;2023-03-31T02:08:15;101287.84;;;18.84;100.00
71638;BME280;59485;43.542;-5.676;2023-03-31T02:10:44;101292.34;;;18.67;100.00
71638;BME280;59485;43.542;-5.676;2023-03-31T02:13:13;101310.69;;;18.68;100.00
71638;BME280;59485;43.542;-5.676;2023-03-31T02:15:41;101301.28;;;18.69;100.00
71638;BME280;59485;43.542;-5.676;2023-03-31T02:18:13;101289.00;;;18.77;100.00
71638;BME280;59485;43.542;-5.676;2023-03-31T02:20:42;101287.84;;;18.66;100.00
71638;BME280;59485;43.542;-5.676;2023-03-31T02:23:12;101279.97;;;18.63;100.00
71638;BME280;59485;43.542;-5.676;2023-03-31T02:25:51;101309.00;;;18.67;100.00
71638;BME280;59485;43.542;-5.676;2023-03-31T02:28:21;101305.06;;;18.74;100.00
71638;BME280;59485;43.542;-5.676;2023-03-31T02:33:15;101299.03;;;18.59;100.00
71638;BME280;59485;43.542;-5.676;2023-03-31T02:35:41;101302.72;;;18.71;100.00
71638;BME280;59485;43.542;-5.676;2023-03-31T02:38:07;101305.72;;;18.70;100.00
71638;BME280;59485;43.542;-5.676;2023-03-31T02:40:33;101307.44;;;18.71;100.00
71638;BME280;59485;43.542;-5.676;2023-03-31T02:42:59;101299.63;;;18.61;100.00
71638;BME280;59485;43.542;-5.676;2023-03-31T02:45:44;101303.81;;;18.70;100.00
71638;BME280;59485;43.542;-5.676;2023-03-31T02:48:16;101304.97;;;18.63;100.00
71638;BME280;59485;43.542;-5.676;2023-03-31T02:56:19;101338.00;;;18.71;100.00
71638;BME280;59485;43.542;-5.676;2023-03-31T03:02:10;101339.69;;;18.72;100.00
71638;BME280;59485;43.542;-5.676;2023-03-31T03:11:04;101355.97;;;18.68;100.00
71638;BME280;59485;43.542;-5.676;2023-03-31T03:16:21;101344.56;;;18.58;100.00
71638;BME280;59485;43.542;-5.676;2023-03-31T03:18:59;101347.56;;;18.57;100.00
71638;BME280;59485;43.542;-5.676;2023-03-31T03:21:26;101339.84;;;18.59;100.00
71638;BME280;59485;43.542;-5.676;2023-03-31T03:23:52;101332.81;;;18.31;100.00
71638;BME280;59485;43.542;-5.676;2023-03-31T03:26:19;101350.28;;;17.82;100.00
71638;BME280;59485;43.542;-5.676;2023-03-31T03:28:53;101351.00;;;17.33;100.00
71638;BME280;59485;43.542;-5.676;2023-03-31T03:31:20;101361.25;;;17.19;100.00
71638;BME280;59485;43.542;-5.676;2023-03-31T03:33:48;101367.16;;;16.85;100.00
71638;BME280;59485;43.542;-5.676;2023-03-31T03:36:14;101372.28;;;16.75;100.00
71638;BME280;59485;43.542;-5.676;2023-03-31T03:38:40;101364.88;;;16.62;100.00
71638;BME280;59485;43.542;-5.676;2023-03-31T03:41:05;101364.84;;;16.49;100.00
71638;BME280;59485;43.542;-5.676;2023-03-31T03:43:31;101370.19;;;16.31;100.00
71638;BME280;59485;43.542;-5.676;2023-03-31T03:45:57;101346.75;;;16.40;100.00
71638;BME280;59485;43.542;-5.676;2023-03-31T03:48:22;101339.13;;;16.16;100.00
71638;BME280;59485;43.542;-5.676;2023-03-31T03:50:48;101362.72;;;16.11;100.00
71638;BME280;59485;43.542;-5.676;2023-03-31T03:53:14;101358.06;;;16.05;100.00
71638;BME280;59485;43.542;-5.676;2023-03-31T03:55:39;101361.47;;;16.07;100.00
71638;BME280;59485;43.542;-5.676;2023-03-31T03:58:05;101352.94;;;16.22;100.00
71638;BME280;59485;43.542;-5.676;2023-03-31T04:00:31;101357.81;;;16.20;100.00
71638;BME280;59485;43.542;-5.676;2023-03-31T04:02:57;101373.81;;;16.25;100.00
71638;BME280;59485;43.542;-5.676;2023-03-31T04:05:22;101367.84;;;16.01;100.00
71638;BME280;59485;43.542;-5.676;2023-03-31T04:07:48;101373.19;;;16.09;100.00
71638;BME280;59485;43.542;-5.676;2023-03-31T04:10:13;101366.75;;;16.02;100.00
71638;BME280;59485;43.542;-5.676;2023-03-31T04:12:39;101386.97;;;15.96;100.00
71638;BME280;59485;43.542;-5.676;2023-03-31T04:15:05;101380.38;;;15.97;100.00
71638;BME280;59485;43.542;-5.676;2023-03-31T04:17:31;101387.19;;;15.88;100.00
71638;BME280;59485;43.542;-5.676;2023-03-31T04:20:02;101393.16;;;15.98;100.00
71638;BME280;59485;43.542;-5.676;2023-03-31T04:22:30;101358.03;;;16.51;100.00
71638;BME280;59485;43.542;-5.676;2023-03-31T04:25:03;101387.41;;;16.52;100.00
71638;BME280;59485;43.542;-5.676;2023-03-31T04:27:29;101407.25;;;16.63;100.00
71638;BME280;59485;43.542;-5.676;2023-03-31T04:29:55;101389.88;;;17.07;100.00
71638;BME280;59485;43.542;-5.676;2023-03-31T04:32:23;101384.41;;;17.38;100.00
71638;BME280;59485;43.542;-5.676;2023-03-31T04:34:48;101377.75;;;17.52;100.00
71638;BME280;59485;43.542;-5.676;2023-03-31T04:37:27;101393.75;;;17.50;100.00
71638;BME280;59485;43.542;-5.676;2023-03-31T04:40:01;101382.81;;;17.69;99.32
71638;BME280;59485;43.542;-5.676;2023-03-31T04:42:34;101386.94;;;17.46;100.00
71638;BME280;59485;43.542;-5.676;2023-03-31T04:47:27;101441.78;;;17.44;100.00
71638;BME280;59485;43.542;-5.676;2023-03-31T04:49:53;101421.59;;;17.75;97.23
71638;BME280;59485;43.542;-5.676;2023-03-31T04:52:18;101432.25;;;17.72;97.16
71638;BME280;59485;43.542;-5.676;2023-03-31T04:54:44;101446.38;;;17.70;96.33
71638;BME280;59485;43.542;-5.676;2023-03-31T04:57:10;101443.41;;;17.58;94.25
71638;BME280;59485;43.542;-5.676;2023-03-31T04:59:37;101426.97;;;17.70;93.75
71638;BME280;59485;43.542;-5.676;2023-03-31T05:02:03;101433.78;;;17.68;93.67
71638;BME280;59485;43.542;-5.676;2023-03-31T05:04:28;101425.69;;;17.66;92.64
71638;BME280;59485;43.542;-5.676;2023-03-31T05:06:54;101440.41;;;17.67;91.41
71638;BME280;59485;43.542;-5.676;2023-03-31T05:09:20;101434.03;;;17.59;91.82
71638;BME280;59485;43.542;-5.676;2023-03-31T05:11:46;101429.31;;;17.60;90.95
71638;BME280;59485;43.542;-5.676;2023-03-31T05:14:11;101417.59;;;17.65;90.70
71638;BME280;59485;43.542;-5.676;2023-03-31T05:16:37;101436.22;;;17.44;93.24
71638;BME280;59485;43.542;-5.676;2023-03-31T05:19:03;101441.34;;;17.41;92.29
71638;BME280;59485;43.542;-5.676;2023-03-31T05:21:28;101444.97;;;17.41;93.38
71638;BME280;59485;43.542;-5.676;2023-03-31T05:23:56;101464.13;;;17.49;89.76
71638;BME280;59485;43.542;-5.676;2023-03-31T05:26:22;101452.84;;;17.44;91.10
71638;BME280;59485;43.542;-5.676;2023-03-31T05:28:50;101461.34;;;17.49;90.25
71638;BME280;59485;43.542;-5.676;2023-03-31T05:31:16;101454.56;;;17.39;91.53
71638;BME280;59485;43.542;-5.676;2023-03-31T05:33:42;101451.75;;;17.52;90.39
71638;BME280;59485;43.542;-5.676;2023-03-31T05:36:13;101479.03;;;17.55;87.34
71638;BME280;59485;43.542;-5.676;2023-03-31T05:38:40;101455.63;;;17.44;89.46
71638;BME280;59485;43.542;-5.676;2023-03-31T05:41:06;101463.09;;;17.37;89.23
71638;BME280;59485;43.542;-5.676;2023-03-31T05:43:33;101458.81;;;17.41;88.79
71638;BME280;59485;43.542;-5.676;2023-03-31T05:45:59;101459.72;;;17.35;88.87
71638;BME280;59485;43.542;-5.676;2023-03-31T05:48:24;101454.59;;;17.32;87.63
71638;BME280;59485;43.542;-5.676;2023-03-31T05:50:58;101472.88;;;17.46;86.02
71638;BME280;59485;43.542;-5.676;2023-03-31T05:53:25;101465.50;;;17.20;87.75
71638;BME280;59485;43.542;-5.676;2023-03-31T05:55:58;101467.41;;;17.27;87.58
71638;BME280;59485;43.542;-5.676;2023-03-31T05:58:25;101473.56;;;17.29;87.87
71638;BME280;59485;43.542;-5.676;2023-03-31T06:01:19;101474.88;;;17.19;89.80
71638;BME280;59485;43.542;-5.676;2023-03-31T06:03:47;101479.38;;;17.14;89.76
71638;BME280;59485;43.542;-5.676;2023-03-31T06:06:13;101469.78;;;17.10;90.43
71638;BME280;59485;43.542;-5.676;2023-03-31T06:08:39;101494.72;;;17.03;91.49
71638;BME280;59485;43.542;-5.676;2023-03-31T06:11:06;101488.94;;;17.18;91.28
71638;BME280;59485;43.542;-5.676;2023-03-31T06:13:36;101487.06;;;16.99;92.75
71638;BME280;59485;43.542;-5.676;2023-03-31T06:16:02;101516.88;;;17.10;92.54
71638;BME280;59485;43.542;-5.676;2023-03-31T06:18:29;101496.41;;;17.11;93.07
71638;BME280;59485;43.542;-5.676;2023-03-31T06:20:55;101513.91;;;17.05;93.01
71638;BME280;59485;43.542;-5.676;2023-03-31T06:23:21;101503.91;;;16.91;94.69
71638;BME280;59485;43.542;-5.676;2023-03-31T06:25:47;101482.78;;;17.16;93.89
71638;BME280;59485;43.542;-5.676;2023-03-31T06:28:12;101499.44;;;16.90;94.90
71638;BME280;59485;43.542;-5.676;2023-03-31T06:30:38;101509.41;;;17.10;94.63
71638;BME280;59485;43.542;-5.676;2023-03-31T06:33:04;101502.41;;;17.08;94.56
71638;BME280;59485;43.542;-5.676;2023-03-31T06:35:30;101504.13;;;17.09;95.89
71638;BME280;59485;43.542;-5.676;2023-03-31T06:37:55;101494.75;;;16.97;95.63
71638;BME280;59485;43.542;-5.676;2023-03-31T06:40:24;101519.69;;;16.90;97.06
71638;BME280;59485;43.542;-5.676;2023-03-31T06:42:50;101517.94;;;17.02;96.39
71638;BME280;59485;43.542;-5.676;2023-03-31T06:45:15;101521.56;;;17.03;97.30
71638;BME280;59485;43.542;-5.676;2023-03-31T06:47:41;101522.44;;;17.03;97.13
71638;BME280;59485;43.542;-5.676;2023-03-31T06:50:08;101518.19;;;16.87;98.35
71638;BME280;59485;43.542;-5.676;2023-03-31T06:52:34;101518.16;;;17.01;97.86
71638;BME280;59485;43.542;-5.676;2023-03-31T06:55:01;101530.31;;;16.93;98.16
71638;BME280;59485;43.542;-5.676;2023-03-31T06:57:27;101531.56;;;17.10;97.60
71638;BME280;59485;43.542;-5.676;2023-03-31T06:59:53;101545.22;;;17.05;97.37
71638;BME280;59485;43.542;-5.676;2023-03-31T07:02:19;101549.50;;;16.95;98.32
71638;BME280;59485;43.542;-5.676;2023-03-31T07:04:44;101553.13;;;17.15;97.79
71638;BME280;59485;43.542;-5.676;2023-03-31T07:07:10;101575.47;;;17.00;98.91
71638;BME280;59485;43.542;-5.676;2023-03-31T07:09:35;101562.06;;;17.04;98.26
71638;BME280;59485;43.542;-5.676;2023-03-31T07:12:02;101566.09;;;17.14;97.70
71638;BME280;59485;43.542;-5.676;2023-03-31T07:14:31;101566.31;;;17.13;97.84
71638;BME280;59485;43.542;-5.676;2023-03-31T07:16:57;101597.84;;;17.12;98.26
71638;BME280;59485;43.542;-5.676;2023-03-31T07:19:22;101581.88;;;17.20;98.49
71638;BME280;59485;43.542;-5.676;2023-03-31T07:21:48;101588.91;;;17.23;98.02
71638;BME280;59485;43.542;-5.676;2023-03-31T07:24:14;101585.50;;;17.14;98.88
71638;BME280;59485;43.542;-5.676;2023-03-31T07:26:39;101588.91;;;17.10;99.10
71638;BME280;59485;43.542;-5.676;2023-03-31T07:29:05;101594.66;;;17.28;97.24
71638;BME280;59485;43.542;-5.676;2023-03-31T07:31:31;101613.63;;;17.18;97.67
71638;BME280;59485;43.542;-5.676;2023-03-31T07:33:56;101595.75;;;17.07;98.12
71638;BME280;59485;43.542;-5.676;2023-03-31T07:36:22;101576.53;;;17.19;98.40
71638;BME280;59485;43.542;-5.676;2023-03-31T07:38:48;101591.47;;;17.24;96.97
71638;BME280;59485;43.542;-5.676;2023-03-31T07:41:16;101607.22;;;17.37;96.21
71638;BME280;59485;43.542;-5.676;2023-03-31T07:43:43;101591.88;;;17.41;95.52
71638;BME280;59485;43.542;-5.676;2023-03-31T07:46:27;101593.13;;;17.45;95.12
71638;BME280;59485;43.542;-5.676;2023-03-31T07:48:54;101584.19;;;17.43;94.21
71638;BME280;59485;43.542;-5.676;2023-03-31T07:51:23;101606.56;;;17.48;94.36
71638;BME280;59485;43.542;-5.676;2023-03-31T07:53:50;101592.75;;;17.35;94.68
71638;BME280;59485;43.542;-5.676;2023-03-31T07:56:22;101595.28;;;17.30;94.63
71638;BME280;59485;43.542;-5.676;2023-03-31T07:58:48;101599.53;;;17.52;93.40
71638;BME280;59485;43.542;-5.676;2023-03-31T08:01:15;101593.59;;;17.42;93.63
71638;BME280;59485;43.542;-5.676;2023-03-31T08:03:42;101595.06;;;17.51;93.80
71638;BME280;59485;43.542;-5.676;2023-03-31T08:06:08;101606.56;;;17.55;93.31
71638;BME280;59485;43.542;-5.676;2023-03-31T08:08:34;101607.41;;;17.55;93.82
71638;BME280;59485;43.542;-5.676;2023-03-31T08:11:02;101609.31;;;17.55;93.44
71638;BME280;59485;43.542;-5.676;2023-03-31T08:13:28;101605.28;;;17.57;93.55
71638;BME280;59485;43.542;-5.676;2023-03-31T08:15:53;101618.06;;;17.58;93.86
71638;BME280;59485;43.542;-5.676;2023-03-31T08:18:19;101611.03;;;17.56;95.81
71638;BME280;59485;43.542;-5.676;2023-03-31T08:20:45;101611.69;;;17.65;93.51
71638;BME280;59485;43.542;-5.676;2023-03-31T08:23:14;101562.19;;;17.55;93.23
71638;BME280;59485;43.542;-5.676;2023-03-31T08:25:40;101618.72;;;17.60;94.98
71638;BME280;59485;43.542;-5.676;2023-03-31T08:28:05;101589.28;;;17.73;93.26
71638;BME280;59485;43.542;-5.676;2023-03-31T08:30:36;101616.16;;;17.72;94.06
71638;BME280;59485;43.542;-5.676;2023-03-31T08:33:02;101602.28;;;17.79;94.00
71638;BME280;59485;43.542;-5.676;2023-03-31T08:35:28;101611.00;;;17.82;93.23
71638;BME280;59485;43.542;-5.676;2023-03-31T08:37:53;101619.78;;;17.79;92.39
71638;BME280;59485;43.542;-5.676;2023-03-31T08:40:21;101606.31;;;17.83;92.47
71638;BME280;59485;43.542;-5.676;2023-03-31T08:42:50;101610.13;;;17.95;92.20
71638;BME280;59485;43.542;-5.676;2023-03-31T08:45:28;101631.47;;;17.94;89.71
71638;BME280;59485;43.542;-5.676;2023-03-31T08:48:04;101660.28;;;17.93;92.64
71638;BME280;59485;43.542;-5.676;2023-03-31T08:50:34;101637.38;;;18.11;89.56
71638;BME280;59485;43.542;-5.676;2023-03-31T08:55:42;101623.28;;;18.13;89.12
71638;BME280;59485;43.542;-5.676;2023-03-31T09:01:18;101628.56;;;18.27;87.88
71638;BME280;59485;43.542;-5.676;2023-03-31T09:04:01;101671.72;;;18.23;87.24
71638;BME280;59485;43.542;-5.676;2023-03-31T09:09:05;101642.44;;;18.27;88.35
71638;BME280;59485;43.542;-5.676;2023-03-31T09:11:37;101650.94;;;18.39;87.21
71638;BME280;59485;43.542;-5.676;2023-03-31T09:14:23;101661.19;;;18.38;86.86
71638;BME280;59485;43.542;-5.676;2023-03-31T09:17:23;101664.63;;;18.27;88.50
71638;BME280;59485;43.542;-5.676;2023-03-31T09:19:56;101661.22;;;18.25;89.66
71638;BME280;59485;43.542;-5.676;2023-03-31T09:22:30;101656.50;;;18.39;88.70
71638;BME280;59485;43.542;-5.676;2023-03-31T09:25:19;101638.19;;;18.25;90.37
71638;BME280;59485;43.542;-5.676;2023-03-31T09:27:48;101655.72;;;18.19;91.46
71638;BME280;59485;43.542;-5.676;2023-03-31T09:30:18;101659.66;;;18.49;90.09
71638;BME280;59485;43.542;-5.676;2023-03-31T09:32:47;101654.75;;;18.45;90.47
71638;BME280;59485;43.542;-5.676;2023-03-31T09:35:19;101651.56;;;17.77;100.00
71638;BME280;59485;43.542;-5.676;2023-03-31T09:37:50;101662.22;;;17.60;100.00
71638;BME280;59485;43.542;-5.676;2023-03-31T09:40:21;101668.41;;;17.22;100.00
71638;BME280;59485;43.542;-5.676;2023-03-31T09:42:59;101674.56;;;17.11;100.00
71638;BME280;59485;43.542;-5.676;2023-03-31T09:45:26;101670.97;;;17.17;100.00
71638;BME280;59485;43.542;-5.676;2023-03-31T09:48:13;101661.16;;;17.08;100.00
71638;BME280;59485;43.542;-5.676;2023-03-31T09:51:00;101672.41;;;16.94;100.00
71638;BME280;59485;43.542;-5.676;2023-03-31T09:53:47;101669.00;;;16.92;100.00
71638;BME280;59485;43.542;-5.676;2023-03-31T09:59:19;101656.44;;;16.96;100.00
71638;BME280;59485;43.542;-5.676;2023-03-31T10:01:48;101664.56;;;16.97;100.00
71638;BME280;59485;43.542;-5.676;2023-03-31T10:04:21;101656.66;;;16.87;100.00
71638;BME280;59485;43.542;-5.676;2023-03-31T10:06:47;101645.41;;;17.09;100.00
71638;BME280;59485;43.542;-5.676;2023-03-31T10:09:13;101656.03;;;16.99;100.00
71638;BME280;59485;43.542;-5.676;2023-03-31T10:11:52;101646.88;;;16.98;100.00
71638;BME280;59485;43.542;-5.676;2023-03-31T10:14:24;101651.97;;;17.01;100.00
71638;BME280;59485;43.542;-5.676;2023-03-31T10:17:02;101664.31;;;16.92;100.00
71638;BME280;59485;43.542;-5.676;2023-03-31T10:19:31;101677.56;;;16.97;100.00
71638;BME280;59485;43.542;-5.676;2023-03-31T10:22:00;101672.47;;;17.07;100.00
71638;BME280;59485;43.542;-5.676;2023-03-31T10:24:37;101651.97;;;17.01;100.00
71638;BME280;59485;43.542;-5.676;2023-03-31T10:27:04;101679.28;;;17.17;100.00
71638;BME280;59485;43.542;-5.676;2023-03-31T10:29:32;101655.19;;;16.98;100.00
71638;BME280;59485;43.542;-5.676;2023-03-31T10:32:09;101656.69;;;17.07;100.00
71638;BME280;59485;43.542;-5.676;2023-03-31T10:34:41;101664.38;;;17.25;100.00
71638;BME280;59485;43.542;-5.676;2023-03-31T10:37:13;101670.78;;;17.25;100.00
71638;BME280;59485;43.542;-5.676;2023-03-31T10:39:42;101657.53;;;17.41;100.00
71638;BME280;59485;43.542;-5.676;2023-03-31T10:42:08;101675.25;;;17.79;100.00
71638;BME280;59485;43.542;-5.676;2023-03-31T10:47:26;101663.06;;;18.58;92.02
71638;BME280;59485;43.542;-5.676;2023-03-31T10:49:55;101687.31;;;18.76;85.23
71638;BME280;59485;43.542;-5.676;2023-03-31T10:52:25;101696.03;;;18.79;84.36
71638;BME280;59485;43.542;-5.676;2023-03-31T10:54:58;101682.34;;;18.84;83.34
71638;BME280;59485;43.542;-5.676;2023-03-31T11:05:59;101691.31;;;18.86;79.05
71638;BME280;59485;43.542;-5.676;2023-03-31T11:08:46;101699.88;;;18.85;77.95
71638;BME280;59485;43.542;-5.676;2023-03-31T11:22:04;101743.00;;;18.94;76.90
71638;BME280;59485;43.542;-5.676;2023-03-31T11:44:01;101701.69;;;18.53;100.00
71638;BME280;59485;43.542;-5.676;2023-03-31T11:46:43;101681.50;;;18.32;100.00
71638;BME280;59485;43.542;-5.676;2023-03-31T11:49:24;101687.25;;;18.37;100.00
71638;BME280;59485;43.542;-5.676;2023-03-31T11:54:36;101687.66;;;18.34;100.00
71638;BME280;59485;43.542;-5.676;2023-03-31T11:57:13;101693.59;;;18.51;100.00
71638;BME280;59485;43.542;-5.676;2023-03-31T11:59:42;101691.00;;;18.63;100.00
71638;BME280;59485;43.542;-5.676;2023-03-31T12:02:17;101724.63;;;18.35;100.00
71638;BME280;59485;43.542;-5.676;2023-03-31T12:04:50;101684.22;;;18.46;100.00
71638;BME280;59485;43.542;-5.676;2023-03-31T12:07:29;101697.00;;;18.53;100.00
71638;BME280;59485;43.542;-5.676;2023-03-31T12:12:44;101698.41;;;18.18;100.00
71638;BME280;59485;43.542;-5.676;2023-03-31T12:15:30;101700.38;;;17.91;100.00
71638;BME280;59485;43.542;-5.676;2023-03-31T12:18:23;101705.53;;;17.81;100.00
71638;BME280;59485;43.542;-5.676;2023-03-31T12:20:59;101695.94;;;17.50;100.00
71638;BME280;59485;43.542;-5.676;2023-03-31T12:23:30;101707.47;;;17.67;100.00
71638;BME280;59485;43.542;-5.676;2023-03-31T12:28:29;101719.38;;;17.48;100.00
71638;BME280;59485;43.542;-5.676;2023-03-31T12:30:59;101689.09;;;17.07;100.00
71638;BME280;59485;43.542;-5.676;2023-03-31T12:33:30;101702.09;;;17.19;100.00
71638;BME280;59485;43.542;-5.676;2023-03-31T12:36:34;101713.31;;;16.92;100.00
71638;BME280;59485;43.542;-5.676;2023-03-31T12:39:18;101713.16;;;17.19;100.00
71638;BME280;59485;43.542;-5.676;2023-03-31T12:50:12;101710.59;;;17.18;100.00
71638;BME280;59485;43.542;-5.676;2023-03-31T12:55:41;101716.81;;;17.59;100.00
71638;BME280;59485;43.542;-5.676;2023-03-31T13:03:45;101698.91;;;17.88;100.00
71638;BME280;59485;43.542;-5.676;2023-03-31T13:09:00;101755.44;;;17.61;100.00
71638;BME280;59485;43.542;-5.676;2023-03-31T13:14:11;101751.84;;;17.74;100.00
71638;BME280;59485;43.542;-5.676;2023-03-31T13:16:38;101694.03;;;17.71;100.00
71638;BME280;59485;43.542;-5.676;2023-03-31T13:19:04;101715.75;;;17.93;100.00
71638;BME280;59485;43.542;-5.676;2023-03-31T13:21:30;101712.56;;;17.90;100.00
71638;BME280;59485;43.542;-5.676;2023-03-31T13:24:00;101713.41;;;17.90;100.00
71638;BME280;59485;43.542;-5.676;2023-03-31T13:32:26;101737.97;;;17.80;100.00
71638;BME280;59485;43.542;-5.676;2023-03-31T13:34:58;101713.66;;;17.89;100.00
71638;BME280;59485;43.542;-5.676;2023-03-31T13:48:50;101770.94;;;17.16;100.00
71638;BME280;59485;43.542;-5.676;2023-03-31T13:54:42;101782.47;;;17.33;100.00
71638;BME280;59485;43.542;-5.676;2023-03-31T14:00:29;101763.69;;;17.15;100.00
71638;BME280;59485;43.542;-5.676;2023-03-31T14:03:28;101787.50;;;17.03;100.00
71638;BME280;59485;43.542;-5.676;2023-03-31T14:06:25;101788.09;;;16.85;100.00
71638;BME280;59485;43.542;-5.676;2023-03-31T14:09:00;101766.78;;;16.85;100.00
71638;BME280;59485;43.542;-5.676;2023-03-31T14:11:31;101805.91;;;16.69;100.00
71638;BME280;59485;43.542;-5.676;2023-03-31T14:14:17;101775.66;;;16.68;100.00
71638;BME280;59485;43.542;-5.676;2023-03-31T14:16:57;101760.97;;;16.67;100.00
71638;BME280;59485;43.542;-5.676;2023-03-31T14:24:53;101755.75;;;16.99;100.00
71638;BME280;59485;43.542;-5.676;2023-03-31T14:27:44;101780.44;;;16.87;100.00
71638;BME280;59485;43.542;-5.676;2023-03-31T14:36:37;101749.91;;;16.74;100.00
71638;BME280;59485;43.542;-5.676;2023-03-31T14:39:13;101737.34;;;16.71;100.00
71638;BME280;59485;43.542;-5.676;2023-03-31T14:41:40;101751.81;;;16.73;100.00
71638;BME280;59485;43.542;-5.676;2023-03-31T14:44:13;101741.63;;;16.39;100.00
71638;BME280;59485;43.542;-5.676;2023-03-31T14:46:40;101791.53;;;16.52;100.00
71638;BME280;59485;43.542;-5.676;2023-03-31T14:49:25;101759.09;;;16.40;100.00
71638;BME280;59485;43.542;-5.676;2023-03-31T14:51:53;101793.16;;;16.40;100.00
71638;BME280;59485;43.542;-5.676;2023-03-31T14:54:20;101747.81;;;16.41;100.00
71638;BME280;59485;43.542;-5.676;2023-03-31T14:56:49;101758.66;;;16.36;100.00
71638;BME280;59485;43.542;-5.676;2023-03-31T14:59:23;101766.53;;;16.39;100.00
71638;BME280;59485;43.542;-5.676;2023-03-31T15:01:50;101746.38;;;16.45;100.00
71638;BME280;59485;43.542;-5.676;2023-03-31T15:04:20;101756.25;;;16.61;100.00
71638;BME280;59485;43.542;-5.676;2023-03-31T15:06:48;101742.09;;;16.43;100.00
71638;BME280;59485;43.542;-5.676;2023-03-31T15:09:28;101735.41;;;16.31;100.00
71638;BME280;59485;43.542;-5.676;2023-03-31T15:12:02;101767.13;;;16.28;100.00
71638;BME280;59485;43.542;-5.676;2023-03-31T15:14:30;101789.91;;;16.30;100.00
71638;BME280;59485;43.542;-5.676;2023-03-31T15:16:58;101770.09;;;16.27;100.00
71638;BME280;59485;43.542;-5.676;2023-03-31T15:19:33;101750.97;;;16.32;100.00
71638;BME280;59485;43.542;-5.676;2023-03-31T15:22:04;101783.72;;;16.28;100.00
71638;BME280;59485;43.542;-5.676;2023-03-31T15:24:30;101811.09;;;16.17;100.00
71638;BME280;59485;43.542;-5.676;2023-03-31T15:27:01;101773.97;;;16.39;100.00
71638;BME280;59485;43.542;-5.676;2023-03-31T15:29:42;101780.47;;;16.52;100.00
71638;BME280;59485;43.542;-5.676;2023-03-31T15:32:14;101810.25;;;16.50;100.00
71638;BME280;59485;43.542;-5.676;2023-03-31T15:34:42;101824.75;;;16.52;100.00
71638;BME280;59485;43.542;-5.676;2023-03-31T15:37:08;101787.06;;;16.58;100.00
71638;BME280;59485;43.542;-5.676;2023-03-31T15:39:35;101784.75;;;16.55;100.00
71638;BME280;59485;43.542;-5.676;2023-03-31T15:42:04;101784.81;;;16.62;100.00